Time;durP1;ratioP1;P1;durP2;ratioP2;P2;SDS_P1;SDS_P2;PMS_P1;PMS_P2;Temp;Humidity;BMP_temperature;BMP_pressure;BME280_temperature;BME280_humidity;BME280_pressure;Samples;Min_cycle;Max_cycle;Signal;HPM_P1;HPM_P2
2023/04/12 00:00:53;;;;;;;10.38;8.52;;;;;;;10.94;68.14;94152.81;5002267;28;21328;-67
2023/04/12 00:03:20;;;;;;;9.40;8.48;;;;;;;10.90;68.20;94147.88;5007190;28;20265;-71
2023/04/12 00:05:53;;;;;;;9.73;8.82;;;;;;;10.92;67.95;94145.25;5008650;28;20747;-72
2023/04/12 00:08:23;;;;;;;9.75;8.20;;;;;;;10.97;68.22;94145.84;5010475;28;20663;-69
2023/04/12 00:10:50;;;;;;;10.30;9.27;;;;;;;10.97;67.68;94147.59;5007209;28;22373;-68
2023/04/12 00:13:17;;;;;;;10.60;9.52;;;;;;;11.04;67.95;94141.31;5011043;28;20656;-70
2023/04/12 00:15:43;;;;;;;10.05;9.13;;;;;;;11.08;67.80;94138.53;5010857;28;20239;-68
2023/04/12 00:18:10;;;;;;;13.55;9.30;;;;;;;11.02;67.76;94138.00;5013954;28;20257;-65
2023/04/12 00:20:37;;;;;;;10.50;9.15;;;;;;;11.00;68.06;94133.00;5012181;28;20253;-68
2023/04/12 00:23:05;;;;;;;10.48;9.32;;;;;;;11.05;67.84;94130.25;5015736;28;20210;-67
2023/04/12 00:25:32;;;;;;;11.75;9.93;;;;;;;11.01;67.98;94129.56;5014136;28;20230;-65
2023/04/12 00:27:59;;;;;;;11.25;10.18;;;;;;;11.06;68.04;94127.63;5014099;28;20231;-69
2023/04/12 00:30:27;;;;;;;14.80;9.70;;;;;;;11.05;67.63;94130.25;5012365;28;20316;-67
2023/04/12 00:32:53;;;;;;;12.77;9.15;;;;;;;10.99;67.78;94125.44;5013233;28;20227;-66
2023/04/12 00:35:20;;;;;;;11.77;9.95;;;;;;;11.02;67.84;94131.22;5014610;28;20231;-64
2023/04/12 00:37:47;;;;;;;12.65;9.35;;;;;;;11.01;67.84;94127.03;5016095;28;21392;-67
2023/04/12 00:40:15;;;;;;;10.82;9.57;;;;;;;10.95;68.23;94123.97;5014838;28;20208;-67
2023/04/12 00:42:42;;;;;;;14.23;10.55;;;;;;;11.05;67.87;94122.59;5015239;28;20207;-70
2023/04/12 00:45:09;;;;;;;12.95;8.77;;;;;;;11.06;67.65;94121.72;5016591;28;20204;-67
2023/04/12 00:47:37;;;;;;;10.05;9.05;;;;;;;10.85;68.54;94118.53;5015965;28;20204;-65
2023/04/12 00:50:05;;;;;;;10.73;9.20;;;;;;;10.98;68.07;94113.63;5016127;28;20212;-67
2023/04/12 00:52:34;;;;;;;9.80;8.88;;;;;;;10.93;68.58;94115.59;5013623;28;20875;-67
2023/04/12 00:55:03;;;;;;;14.57;10.77;;;;;;;10.76;68.75;94118.97;5014439;28;20586;-68
2023/04/12 00:57:35;;;;;;;12.70;9.88;;;;;;;10.87;68.46;94120.09;5014983;28;20223;-72
2023/04/12 01:00:03;;;;;;;12.60;10.18;;;;;;;10.75;68.65;94127.50;5014798;28;20211;-66
2023/04/12 01:02:32;;;;;;;12.98;9.35;;;;;;;10.72;68.86;94118.28;5014605;28;20203;-69
2023/04/12 01:04:59;;;;;;;11.70;10.60;;;;;;;10.66;69.29;94110.97;5015206;28;20204;-68
2023/04/12 01:07:43;;;;;;;11.57;9.50;;;;;;;10.77;68.91;94111.28;5015506;28;20214;-68
2023/04/12 01:10:20;;;;;;;16.42;9.98;;;;;;;10.81;68.59;94106.88;5015207;28;20211;-68
2023/04/12 01:12:56;;;;;;;11.82;9.43;;;;;;;10.77;68.79;94115.53;5015290;28;20741;-69
2023/04/12 01:15:25;;;;;;;10.75;9.45;;;;;;;10.80;68.72;94111.13;5015555;28;20262;-70
2023/04/12 01:17:57;;;;;;;11.55;9.43;;;;;;;10.67;69.01;94110.06;5015465;28;22855;-67
2023/04/12 01:20:30;;;;;;;12.82;10.02;;;;;;;10.66;69.16;94100.78;5014049;28;22079;-69
2023/04/12 01:23:14;;;;;;;12.07;10.88;;;;;;;10.67;69.14;94101.63;5015162;28;20237;-69
2023/04/12 01:25:57;;;;;;;10.95;9.55;;;;;;;10.70;69.03;94109.09;5014630;28;20952;-68
2023/04/12 01:28:29;;;;;;;10.35;9.20;;;;;;;10.72;69.07;94103.03;5012937;28;20223;-71
2023/04/12 01:30:56;;;;;;;11.65;9.27;;;;;;;10.58;69.50;94095.28;5015011;28;20208;-68
2023/04/12 01:33:30;;;;;;;14.30;10.43;;;;;;;10.53;69.76;94103.13;5013350;28;20204;-71
2023/04/12 01:35:59;;;;;;;12.63;10.27;;;;;;;10.53;70.07;94107.38;5015084;28;20240;-68
2023/04/12 01:38:26;;;;;;;12.10;10.85;;;;;;;10.44;70.63;94111.19;5013854;28;20677;-68
2023/04/12 01:40:54;;;;;;;11.20;10.00;;;;;;;10.50;70.37;94112.63;5013672;28;20218;-67
2023/04/12 01:43:21;;;;;;;14.10;11.07;;;;;;;10.51;70.52;94104.09;5013882;28;20254;-65
2023/04/12 01:45:49;;;;;;;12.35;11.00;;;;;;;10.54;70.83;94109.03;5014218;28;20203;-70
2023/04/12 01:48:16;;;;;;;17.48;11.05;;;;;;;10.60;70.49;94111.28;5014065;28;20204;-70
2023/04/12 01:50:54;;;;;;;17.70;11.93;;;;;;;10.57;70.36;94112.25;5014982;28;20700;-68
2023/04/12 01:53:23;;;;;;;13.98;11.55;;;;;;;10.65;70.48;94113.56;5014854;28;20277;-68
2023/04/12 01:55:52;;;;;;;13.55;10.60;;;;;;;10.71;70.35;94106.47;5014451;28;20272;-67
2023/04/12 01:58:22;;;;;;;12.93;11.13;;;;;;;10.67;70.51;94109.25;5012828;28;20620;-70
2023/04/12 02:00:50;;;;;;;14.90;11.20;;;;;;;10.54;70.52;94106.50;5014474;28;20250;-68
2023/04/12 02:03:20;;;;;;;14.25;11.10;;;;;;;10.48;70.75;94107.59;5014084;28;20218;-70
2023/04/12 02:05:47;;;;;;;14.85;11.93;;;;;;;10.47;71.16;94117.84;5013493;28;20294;-67
2023/04/12 02:08:14;;;;;;;13.10;11.20;;;;;;;10.31;71.88;94116.94;5014212;28;20211;-69
2023/04/12 02:10:41;;;;;;;15.25;10.90;;;;;;;10.22;71.49;94113.94;5014505;28;20208;-70
2023/04/12 02:13:07;;;;;;;15.45;11.65;;;;;;;10.15;71.95;94117.59;5014337;28;20207;-66
2023/04/12 02:15:36;;;;;;;17.75;11.02;;;;;;;10.13;71.79;94114.34;5013272;28;20262;-67
2023/04/12 02:18:04;;;;;;;11.50;10.18;;;;;;;10.12;72.46;94115.25;5014699;28;20269;-67
2023/04/12 02:20:30;;;;;;;10.60;9.23;;;;;;;10.04;71.94;94114.78;5014566;28;20953;-68
2023/04/12 02:22:59;;;;;;;11.93;9.48;;;;;;;10.01;72.20;94112.38;5014095;28;20208;-64
2023/04/12 02:25:26;;;;;;;13.32;10.23;;;;;;;9.99;71.81;94110.78;5012758;28;20338;-67
2023/04/12 02:27:53;;;;;;;12.30;10.38;;;;;;;9.97;71.91;94108.31;5012064;28;20231;-65
2023/04/12 02:30:19;;;;;;;13.25;10.73;;;;;;;10.05;71.79;94118.94;5013588;28;20196;-68
2023/04/12 02:32:47;;;;;;;12.90;10.40;;;;;;;10.09;71.85;94112.84;5012465;28;20681;-65
2023/04/12 02:35:17;;;;;;;11.90;9.85;;;;;;;10.11;71.49;94113.59;5011291;28;20910;-68
2023/04/12 02:37:45;;;;;;;13.50;11.02;;;;;;;10.07;71.54;94109.56;5012435;28;20243;-65
2023/04/12 02:40:14;;;;;;;14.85;11.30;;;;;;;10.16;71.43;94098.94;5012792;28;20656;-68
2023/04/12 02:42:41;;;;;;;13.18;10.63;;;;;;;10.21;71.55;94086.91;5013000;28;20208;-69
2023/04/12 02:45:10;;;;;;;14.90;10.57;;;;;;;10.14;71.46;94095.69;5011998;28;20216;-66
2023/04/12 02:47:39;;;;;;;13.13;11.13;;;;;;;10.20;71.76;94094.59;5012439;28;20295;-66
2023/04/12 02:50:07;;;;;;;12.60;11.27;;;;;;;10.27;71.64;94087.50;5013144;28;20263;-68
2023/04/12 02:52:35;;;;;;;17.42;12.43;;;;;;;10.28;71.77;94089.16;5013608;28;20277;-72
2023/04/12 02:55:02;;;;;;;14.45;11.93;;;;;;;10.29;71.75;94089.06;5012959;28;20288;-69
2023/04/12 02:57:29;;;;;;;13.95;11.43;;;;;;;10.35;71.68;94087.97;5012275;28;20232;-66
2023/04/12 02:59:56;;;;;;;17.73;11.23;;;;;;;10.54;70.87;94086.19;5011955;28;20277;-66
2023/04/12 03:02:23;;;;;;;15.75;12.80;;;;;;;10.62;70.70;94093.44;5014056;28;20281;-65
2023/04/12 03:04:50;;;;;;;13.43;11.52;;;;;;;10.66;70.52;94077.13;5013356;28;20196;-67
2023/04/12 03:07:18;;;;;;;16.15;12.40;;;;;;;10.80;70.44;94090.78;5014005;28;20188;-68
2023/04/12 03:09:47;;;;;;;16.88;12.35;;;;;;;10.85;70.73;94082.94;5013770;28;20200;-68
2023/04/12 03:12:14;;;;;;;18.38;12.48;;;;;;;10.90;70.55;94086.88;5013748;28;20303;-67
2023/04/12 03:14:41;;;;;;;16.63;11.52;;;;;;;10.94;70.49;94077.38;5013826;28;20811;-67
2023/04/12 03:17:08;;;;;;;15.48;12.23;;;;;;;11.00;70.42;94079.63;5012966;28;20708;-68
2023/04/12 03:19:35;;;;;;;16.52;12.45;;;;;;;11.07;70.46;94085.22;5014217;28;20212;-68
2023/04/12 03:22:02;;;;;;;18.95;12.65;;;;;;;11.05;70.69;94089.56;5014126;28;20231;-67
2023/04/12 03:24:32;;;;;;;14.13;12.05;;;;;;;11.12;70.42;94086.63;5012907;28;20238;-65
2023/04/12 03:27:02;;;;;;;17.27;12.80;;;;;;;11.15;70.73;94090.72;5013409;28;20242;-65
2023/04/12 03:29:29;;;;;;;18.58;13.07;;;;;;;11.16;71.18;94092.34;5012956;28;20591;-68
2023/04/12 03:31:56;;;;;;;17.23;13.40;;;;;;;11.21;71.21;94092.94;5013464;28;20328;-68
2023/04/12 03:34:26;;;;;;;17.27;13.82;;;;;;;11.28;70.54;94096.00;5013775;28;20238;-68
2023/04/12 03:36:53;;;;;;;17.40;13.80;;;;;;;11.31;70.60;94096.69;5011608;28;20239;-67
2023/04/12 03:39:20;;;;;;;18.58;13.85;;;;;;;11.42;70.30;94098.66;5013479;28;21724;-64
2023/04/12 03:41:47;;;;;;;17.58;13.52;;;;;;;11.44;70.04;94099.38;5013136;28;20218;-68
2023/04/12 03:44:15;;;;;;;20.20;14.48;;;;;;;11.46;69.88;94103.50;5013619;28;20326;-68
2023/04/12 03:46:42;;;;;;;23.20;14.55;;;;;;;11.39;69.75;94107.25;5012703;28;20327;-69
2023/04/12 03:49:09;;;;;;;20.90;14.85;;;;;;;11.47;69.34;94107.69;5013154;28;20678;-69
2023/04/12 03:51:41;;;;;;;16.35;13.23;;;;;;;11.49;69.09;94110.97;5012439;28;20728;-65
2023/04/12 03:54:08;;;;;;;19.92;13.77;;;;;;;11.51;69.08;94108.34;5012964;28;20298;-69
2023/04/12 03:56:35;;;;;;;17.70;13.85;;;;;;;11.52;68.93;94120.19;5013180;28;20452;-67
2023/04/12 03:59:02;;;;;;;20.52;14.65;;;;;;;11.49;68.68;94105.88;5012818;28;20238;-67
2023/04/12 04:01:30;;;;;;;17.35;13.57;;;;;;;11.51;68.80;94104.09;5013435;28;20290;-66
2023/04/12 04:03:56;;;;;;;17.25;14.20;;;;;;;11.49;68.62;94116.06;5012962;28;20269;-66
2023/04/12 04:06:23;;;;;;;20.17;13.50;;;;;;;11.50;68.89;94115.16;5012901;28;20253;-67
2023/04/12 04:08:50;;;;;;;20.83;14.30;;;;;;;11.48;68.58;94109.34;5011909;28;20212;-68
2023/04/12 04:11:16;;;;;;;16.95;13.60;;;;;;;11.59;69.04;94106.25;5012573;28;20208;-68
2023/04/12 04:13:45;;;;;;;18.05;14.25;;;;;;;11.65;68.76;94115.25;5012926;28;20295;-67
2023/04/12 04:16:12;;;;;;;18.70;13.70;;;;;;;11.64;68.45;94124.59;5012719;28;20208;-68
2023/04/12 04:18:40;;;;;;;20.55;15.38;;;;;;;11.66;68.21;94134.69;5012149;28;20689;-66
2023/04/12 04:21:08;;;;;;;19.55;14.13;;;;;;;11.59;68.36;94132.50;5012686;28;20302;-68
2023/04/12 04:23:37;;;;;;;19.65;14.98;;;;;;;11.54;68.53;94142.09;5012121;28;20200;-67
2023/04/12 04:26:08;;;;;;;18.35;13.73;;;;;;;11.57;68.68;94154.66;5013194;28;20212;-69
2023/04/12 04:28:36;;;;;;;19.25;13.93;;;;;;;11.71;68.16;94146.28;5012110;28;20227;-69
2023/04/12 04:31:05;;;;;;;17.70;13.57;;;;;;;11.69;68.29;94148.09;5013172;28;20207;-68
2023/04/12 04:33:31;;;;;;;18.50;14.30;;;;;;;11.67;68.06;94149.06;5012763;28;20196;-65
2023/04/12 04:35:59;;;;;;;20.55;14.13;;;;;;;11.70;67.54;94148.91;5013044;28;20323;-69
2023/04/12 04:38:26;;;;;;;17.42;13.82;;;;;;;11.63;67.04;94142.53;5011883;28;20362;-69
2023/04/12 04:40:54;;;;;;;19.88;13.85;;;;;;;11.58;67.37;94152.94;5012500;28;20203;-68
2023/04/12 04:43:20;;;;;;;16.58;13.50;;;;;;;11.65;67.21;94150.88;5012528;28;20214;-68
2023/04/12 04:45:48;;;;;;;19.83;13.07;;;;;;;11.60;67.09;94148.59;5012898;28;20716;-69
2023/04/12 04:48:15;;;;;;;19.52;13.20;;;;;;;11.70;67.35;94159.91;5012304;28;20204;-68
2023/04/12 04:50:42;;;;;;;23.45;13.38;;;;;;;11.72;66.70;94157.28;5012230;28;20298;-66
2023/04/12 04:53:10;;;;;;;22.08;14.10;;;;;;;11.66;66.48;94167.78;5012677;28;20681;-65
2023/04/12 04:55:37;;;;;;;17.38;13.50;;;;;;;11.64;66.10;94167.03;5012850;28;21193;-65
2023/04/12 04:58:05;;;;;;;19.15;12.77;;;;;;;11.67;66.09;94165.16;5012645;28;20814;-68
2023/04/12 05:00:34;;;;;;;15.95;13.27;;;;;;;11.76;65.82;94159.63;5011761;28;20215;-65
2023/04/12 05:03:01;;;;;;;18.10;12.80;;;;;;;11.60;65.75;94168.94;5013874;28;20211;-68
2023/04/12 05:05:29;;;;;;;13.57;11.63;;;;;;;11.66;65.38;94177.97;5015933;28;20330;-68
2023/04/12 05:07:56;;;;;;;15.52;11.95;;;;;;;11.75;65.54;94177.50;5016363;28;20199;-69
2023/04/12 05:10:24;;;;;;;15.30;11.32;;;;;;;11.77;64.80;94188.47;5015550;28;20227;-63
2023/04/12 05:12:51;;;;;;;17.88;12.98;;;;;;;11.69;64.64;94185.44;5016209;28;20296;-68
2023/04/12 05:15:19;;;;;;;10.73;9.63;;;;;;;11.68;64.39;94181.25;5016006;28;20605;-66
2023/04/12 05:17:46;;;;;;;15.65;11.30;;;;;;;11.73;64.29;94184.41;5015888;28;20230;-66
2023/04/12 05:20:13;;;;;;;11.38;9.88;;;;;;;11.73;63.86;94175.03;5015683;28;20291;-70
2023/04/12 05:22:39;;;;;;;15.40;10.23;;;;;;;11.74;63.32;94165.69;5015496;28;20326;-70
2023/04/12 05:25:07;;;;;;;13.50;9.55;;;;;;;11.83;63.48;94180.50;5013713;28;20212;-67
2023/04/12 05:27:35;;;;;;;10.38;8.75;;;;;;;11.96;62.61;94166.22;5015230;28;20746;-67
2023/04/12 05:30:02;;;;;;;10.95;8.48;;;;;;;12.13;62.19;94173.78;5015020;28;20235;-65
2023/04/12 05:32:28;;;;;;;12.93;9.60;;;;;;;12.08;61.61;94180.03;5014695;28;20265;-66
2023/04/12 05:34:55;;;;;;;10.05;9.05;;;;;;;12.08;62.05;94185.94;5015130;28;21678;-62
2023/04/12 05:37:22;;;;;;;10.40;9.30;;;;;;;11.96;61.55;94186.59;5015413;28;20216;-68
2023/04/12 05:39:49;;;;;;;14.15;8.73;;;;;;;11.89;61.48;94195.44;5014557;28;20235;-67
2023/04/12 05:42:15;;;;;;;10.80;8.85;;;;;;;11.81;61.87;94180.59;5015766;28;20288;-64
2023/04/12 05:44:44;;;;;;;15.10;10.25;;;;;;;11.97;61.04;94183.13;5016140;28;20653;-68
2023/04/12 05:47:11;;;;;;;7.85;6.72;;;;;;;12.04;60.04;94181.91;5014900;28;20212;-66
2023/04/12 05:49:38;;;;;;;7.38;6.60;;;;;;;12.27;59.75;94186.59;5013160;28;20218;-64
2023/04/12 05:52:05;;;;;;;8.63;7.15;;;;;;;12.33;59.51;94192.28;5014116;28;20211;-63
2023/04/12 05:54:32;;;;;;;9.05;6.95;;;;;;;12.16;59.64;94194.00;5013870;28;20297;-69
2023/04/12 05:56:59;;;;;;;8.60;6.35;;;;;;;12.15;58.79;94197.44;5013680;28;20294;-67
2023/04/12 05:59:25;;;;;;;5.97;5.47;;;;;;;12.15;58.42;94194.06;5012787;28;20212;-66
2023/04/12 06:01:53;;;;;;;5.45;4.95;;;;;;;12.21;57.99;94192.03;5013825;28;20342;-67
2023/04/12 06:04:20;;;;;;;6.55;5.60;;;;;;;12.13;58.98;94191.59;5015192;28;20300;-69
2023/04/12 06:06:47;;;;;;;8.15;6.40;;;;;;;12.09;58.38;94202.88;5015505;28;20229;-69
2023/04/12 06:09:14;;;;;;;8.32;6.35;;;;;;;12.11;58.75;94201.06;5014555;28;20211;-67
2023/04/12 06:11:41;;;;;;;9.27;5.60;;;;;;;12.05;58.45;94219.22;5015521;28;20208;-67
2023/04/12 06:14:08;;;;;;;10.65;6.25;;;;;;;11.99;59.07;94211.06;5014131;28;20208;-69
2023/04/12 06:16:35;;;;;;;7.78;6.95;;;;;;;11.94;59.23;94208.75;5014842;28;20965;-66
2023/04/12 06:19:03;;;;;;;9.93;6.40;;;;;;;12.00;59.36;94221.19;5014624;28;20320;-68
2023/04/12 06:21:29;;;;;;;12.10;6.45;;;;;;;11.77;59.18;94222.38;5014603;28;20204;-69
2023/04/12 06:23:56;;;;;;;8.93;5.32;;;;;;;11.69;59.58;94226.16;5015278;28;20215;-68
2023/04/12 06:26:23;;;;;;;8.43;5.22;;;;;;;11.62;59.20;94222.31;5014357;28;20239;-65
2023/04/12 06:28:49;;;;;;;4.93;4.50;;;;;;;11.61;59.43;94210.50;5013960;28;20658;-66
2023/04/12 06:31:16;;;;;;;5.55;5.15;;;;;;;11.76;58.89;94212.25;5014817;28;20228;-68
2023/04/12 06:33:43;;;;;;;5.05;4.53;;;;;;;11.81;58.34;94217.94;5013958;28;20594;-68
2023/04/12 06:36:13;;;;;;;6.05;4.40;;;;;;;11.79;58.47;94210.38;5014298;28;20302;-66
2023/04/12 06:38:40;;;;;;;5.65;5.07;;;;;;;12.11;57.64;94215.53;5014930;28;20732;-65
2023/04/12 06:41:07;;;;;;;4.55;4.25;;;;;;;12.38;57.00;94203.84;5013575;28;20313;-68
2023/04/12 06:43:33;;;;;;;5.90;4.97;;;;;;;12.55;57.02;94211.41;5014532;28;20235;-68
2023/04/12 06:46:01;;;;;;;5.50;4.78;;;;;;;12.92;56.18;94217.81;5013496;28;20231;-66
2023/04/12 06:48:28;;;;;;;4.43;3.80;;;;;;;13.06;55.15;94208.59;5014205;28;20292;-65
2023/04/12 06:50:55;;;;;;;5.57;3.65;;;;;;;12.91;55.75;94208.53;5013846;28;20334;-65
2023/04/12 06:53:23;;;;;;;4.75;3.60;;;;;;;12.79;55.96;94196.47;5014333;28;20298;-68
2023/04/12 06:55:50;;;;;;;6.03;3.85;;;;;;;12.80;55.93;94195.59;5013604;28;20350;-68
2023/04/12 06:58:17;;;;;;;5.68;3.80;;;;;;;13.21;54.87;94189.88;5014916;28;20336;-70
2023/04/12 07:00:43;;;;;;;5.03;4.18;;;;;;;13.98;53.24;94187.00;5013202;28;20235;-67
2023/04/12 07:03:10;;;;;;;4.30;3.40;;;;;;;14.69;51.46;94194.53;5013784;28;20680;-67
2023/04/12 07:05:38;;;;;;;5.93;3.67;;;;;;;16.05;48.58;94194.09;5013721;28;20204;-68
2023/04/12 07:08:05;;;;;;;3.45;3.25;;;;;;;18.66;42.20;94180.78;5013840;28;20236;-68
2023/04/12 07:10:34;;;;;;;3.70;3.40;;;;;;;22.53;35.21;94167.75;5013648;28;20215;-69
2023/04/12 07:13:05;;;;;;;4.65;3.00;;;;;;;26.99;27.83;94161.22;5013261;28;20677;-68
2023/04/12 07:15:32;;;;;;;4.22;3.70;;;;;;;28.07;25.64;94153.97;5013690;28;20203;-69
2023/04/12 07:17:59;;;;;;;6.00;4.82;;;;;;;26.49;26.69;94181.66;5013458;28;20257;-69
2023/04/12 07:20:26;;;;;;;6.72;4.30;;;;;;;24.12;29.66;94166.81;5013006;28;20211;-66
2023/04/12 07:22:52;;;;;;;4.40;4.00;;;;;;;21.53;33.81;94159.81;5008037;28;20203;-66
2023/04/12 07:25:19;;;;;;;5.40;3.75;;;;;;;19.42;37.83;94177.19;5003739;28;20354;-67
2023/04/12 07:27:47;;;;;;;5.03;4.57;;;;;;;18.81;39.52;94182.13;5002871;28;20223;-66
2023/04/12 07:30:14;;;;;;;4.78;3.78;;;;;;;19.07;38.59;94161.19;5003361;28;20373;-68
2023/04/12 07:32:40;;;;;;;3.72;3.53;;;;;;;18.57;39.97;94163.44;5009800;28;20437;-65
2023/04/12 07:35:08;;;;;;;6.35;4.45;;;;;;;18.93;40.06;94170.03;5011309;28;20297;-68
2023/04/12 07:37:35;;;;;;;5.72;4.55;;;;;;;20.35;36.66;94157.25;5011514;28;22153;-69
2023/04/12 07:40:02;;;;;;;4.22;3.92;;;;;;;21.00;35.20;94162.81;5010682;28;20290;-69
2023/04/12 07:42:29;;;;;;;3.30;2.88;;;;;;;22.26;32.99;94151.28;5011999;28;20239;-70
2023/04/12 07:44:57;;;;;;;3.40;3.20;;;;;;;23.36;31.41;94144.09;5010891;28;20269;-68
2023/04/12 07:47:24;;;;;;;4.55;2.88;;;;;;;27.11;26.77;94138.16;5011974;28;20366;-67
2023/04/12 07:49:51;;;;;;;2.53;2.35;;;;;;;31.37;21.58;94140.09;5012770;28;20326;-67
2023/04/12 07:52:18;;;;;;;4.85;2.72;;;;;;;30.16;21.02;94133.00;5012507;28;20226;-67
2023/04/12 07:54:44;;;;;;;2.20;2.10;;;;;;;28.86;22.02;94130.66;5012878;28;20267;-70
2023/04/12 07:57:11;;;;;;;2.00;1.90;;;;;;;26.05;24.89;94132.63;5011422;28;20306;-67
2023/04/12 07:59:38;;;;;;;2.22;2.13;;;;;;;24.99;26.21;94124.91;5011440;28;20235;-67
2023/04/12 08:02:06;;;;;;;2.10;2.00;;;;;;;24.44;26.39;94123.81;5012970;28;20204;-70
2023/04/12 08:04:33;;;;;;;2.13;2.03;;;;;;;22.89;28.46;94111.66;5012564;28;20846;-68
2023/04/12 08:07:00;;;;;;;2.20;2.10;;;;;;;21.22;30.72;94130.75;5012224;28;20227;-69
2023/04/12 08:09:26;;;;;;;3.45;2.08;;;;;;;19.91;32.46;94127.53;5012685;28;20295;-69
2023/04/12 08:11:53;;;;;;;2.05;1.95;;;;;;;19.06;34.37;94137.19;5012711;28;20239;-66
2023/04/12 08:14:20;;;;;;;2.60;2.50;;;;;;;19.05;34.88;94132.19;5013225;28;20298;-67
2023/04/12 08:16:47;;;;;;;1.95;1.85;;;;;;;21.15;31.77;94139.97;5012664;28;20289;-70
2023/04/12 08:19:15;;;;;;;2.75;2.03;;;;;;;24.80;26.17;94114.78;5012663;28;20235;-70
2023/04/12 08:21:42;;;;;;;3.38;2.03;;;;;;;28.85;21.73;94108.13;5011359;28;20235;-69
2023/04/12 08:24:09;;;;;;;6.00;1.75;;;;;;;31.60;18.43;94100.31;5012800;28;20304;-70
2023/04/12 08:26:35;;;;;;;2.17;1.33;;;;;;;32.82;17.05;94091.72;5011589;28;20208;-70
2023/04/12 08:29:03;;;;;;;1.77;1.67;;;;;;;32.43;16.52;94110.06;5012496;28;20204;-69
2023/04/12 08:31:30;;;;;;;1.73;1.63;;;;;;;31.93;17.11;94092.38;5013576;28;20207;-67
2023/04/12 08:33:58;;;;;;;1.67;1.55;;;;;;;32.91;16.62;94101.81;5012232;28;20759;-67
2023/04/12 08:36:26;;;;;;;2.95;1.67;;;;;;;33.34;16.23;94095.88;5012342;28;20247;-68
2023/04/12 08:38:54;;;;;;;1.30;1.30;;;;;;;33.16;15.73;94093.16;5014692;28;20254;-67
2023/04/12 08:41:21;;;;;;;1.42;1.33;;;;;;;32.33;16.49;94104.47;5016323;28;20328;-68
2023/04/12 08:43:48;;;;;;;1.63;1.52;;;;;;;33.40;16.01;94098.47;5017100;28;20622;-68
2023/04/12 08:46:16;;;;;;;4.63;1.92;;;;;;;33.85;15.05;94092.22;5016158;28;20666;-67
2023/04/12 08:48:45;;;;;;;1.75;1.65;;;;;;;33.60;15.52;94108.03;5016915;28;20214;-70
2023/04/12 08:51:14;;;;;;;1.55;1.10;;;;;;;33.90;14.40;94095.03;5015978;28;20338;-70
2023/04/12 08:53:42;;;;;;;4.30;1.88;;;;;;;34.02;15.36;94103.81;5016305;28;20246;-68
2023/04/12 08:56:11;;;;;;;2.40;2.17;;;;;;;33.29;15.65;94072.81;5014039;28;20648;-68
2023/04/12 08:58:39;;;;;;;1.73;1.63;;;;;;;32.03;16.33;94083.06;5016597;28;20231;-67
2023/04/12 09:01:12;;;;;;;3.33;1.60;;;;;;;30.32;17.55;94119.56;5014865;28;20210;-70
2023/04/12 09:03:39;;;;;;;2.88;1.55;;;;;;;28.63;18.17;94101.22;5016169;28;20755;-67
2023/04/12 09:06:06;;;;;;;5.22;1.75;;;;;;;27.78;19.79;94099.09;5015670;28;20222;-68
2023/04/12 09:08:33;;;;;;;3.63;1.45;;;;;;;27.43;19.71;94096.16;5015306;28;20287;-66
2023/04/12 09:11:02;;;;;;;3.97;1.60;;;;;;;26.92;20.45;94094.28;5016102;28;21397;-69
2023/04/12 09:13:32;;;;;;;2.90;1.80;;;;;;;26.98;20.32;94089.19;5016812;28;20265;-69
2023/04/12 09:15:59;;;;;;;2.72;1.70;;;;;;;26.38;20.49;94084.66;5016288;28;20712;-73
2023/04/12 09:18:26;;;;;;;2.05;1.30;;;;;;;25.41;20.73;94062.34;5015115;28;20259;-68
2023/04/12 09:21:06;;;;;;;1.55;1.45;;;;;;;24.85;21.57;94083.94;5014880;28;20291;-68
2023/04/12 09:23:34;;;;;;;5.68;1.88;;;;;;;23.05;22.82;94089.28;5015066;28;20231;-68
2023/04/12 09:26:03;;;;;;;2.03;1.92;;;;;;;21.65;23.77;94079.34;5015844;28;20207;-70
2023/04/12 09:28:30;;;;;;;1.67;1.58;;;;;;;20.77;25.70;94084.00;5014800;28;20314;-72
2023/04/12 09:30:59;;;;;;;2.47;1.50;;;;;;;20.45;25.71;94086.81;5016138;28;20631;-69
2023/04/12 09:33:34;;;;;;;3.35;1.60;;;;;;;20.29;25.73;94053.78;5015543;28;20359;-70
2023/04/12 09:36:01;;;;;;;1.98;1.08;;;;;;;20.17;26.46;94076.28;5014729;28;20616;-69
2023/04/12 09:38:28;;;;;;;2.22;1.63;;;;;;;19.60;26.26;94057.13;5013700;28;20231;-69
2023/04/12 09:40:55;;;;;;;1.98;1.83;;;;;;;18.89;27.65;94052.81;5014520;28;21091;-70
2023/04/12 09:43:39;;;;;;;1.70;1.60;;;;;;;18.54;28.23;94051.31;5015686;28;20208;-72
2023/04/12 09:46:11;;;;;;;3.67;1.65;;;;;;;18.52;28.49;94057.53;5015637;28;20207;-70
2023/04/12 09:48:39;;;;;;;1.70;1.60;;;;;;;18.58;28.70;94049.28;5011275;28;20215;-73
2023/04/12 09:51:06;;;;;;;2.08;1.85;;;;;;;18.32;30.80;94026.47;5010848;28;20219;-71
2023/04/12 09:53:34;;;;;;;6.78;2.08;;;;;;;17.44;32.24;94061.69;5010632;28;20302;-70
2023/04/12 09:56:02;;;;;;;2.15;1.80;;;;;;;17.18;32.28;94053.38;5011322;28;20217;-69
2023/04/12 09:58:31;;;;;;;1.58;1.48;;;;;;;17.35;31.62;94039.25;5009717;28;20241;-69
2023/04/12 10:01:02;;;;;;;1.33;1.27;;;;;;;17.66;30.98;94054.00;5011576;28;20291;-70
2023/04/12 10:03:29;;;;;;;5.20;1.70;;;;;;;17.96;29.20;94039.69;5012774;28;20208;-70
2023/04/12 10:05:56;;;;;;;2.20;1.10;;;;;;;17.83;27.95;94041.59;5012362;28;20210;-67
2023/04/12 10:08:23;;;;;;;5.70;1.23;;;;;;;17.67;28.18;94032.50;5012502;28;20666;-67
2023/04/12 10:10:50;;;;;;;1.23;1.20;;;;;;;17.75;28.23;94042.19;5013164;28;20227;-67
2023/04/12 10:13:17;;;;;;;3.92;1.17;;;;;;;17.78;26.84;94025.72;5014768;28;20288;-69
2023/04/12 10:15:45;;;;;;;1.20;1.20;;;;;;;17.72;26.75;94036.47;5013401;28;20922;-68
2023/04/12 10:18:14;;;;;;;2.05;1.00;;;;;;;17.67;25.96;94032.50;5013134;28;20204;-68
2023/04/12 10:20:41;;;;;;;2.95;1.25;;;;;;;17.98;25.97;94037.81;5015508;28;20305;-67
2023/04/12 10:23:09;;;;;;;4.35;1.50;;;;;;;18.21;26.00;94028.28;5024210;28;20203;-68
2023/04/12 10:25:39;;;;;;;4.28;1.88;;;;;;;18.12;25.53;94019.53;5029894;28;20231;-69
2023/04/12 10:28:16;;;;;;;2.42;2.00;;;;;;;17.96;26.22;94024.28;5029072;28;20572;-68
2023/04/12 10:30:43;;;;;;;1.65;1.55;;;;;;;17.81;26.72;94026.31;5030171;28;20207;-66
2023/04/12 10:33:16;;;;;;;2.45;1.90;;;;;;;17.71;27.08;94029.69;5031838;28;20242;-71
2023/04/12 10:35:58;;;;;;;3.13;2.03;;;;;;;17.87;26.02;94022.41;5031075;28;20239;-69
2023/04/12 10:38:31;;;;;;;1.35;1.25;;;;;;;17.79;26.24;94025.59;5030225;28;20199;-66
2023/04/12 10:41:09;;;;;;;1.30;1.20;;;;;;;17.77;25.94;94018.94;5030941;28;20203;-70
2023/04/12 10:43:36;;;;;;;4.60;1.60;;;;;;;17.57;25.45;94023.81;5031423;28;20242;-69
2023/04/12 10:46:05;;;;;;;1.80;1.27;;;;;;;17.60;26.42;94023.59;5031037;28;20207;-70
2023/04/12 10:48:35;;;;;;;3.92;1.88;;;;;;;17.76;27.15;94025.84;5031182;28;20250;-70
2023/04/12 10:51:23;;;;;;;3.75;1.80;;;;;;;17.84;25.25;94035.50;5030564;28;20208;-70
2023/04/12 10:53:51;;;;;;;1.40;1.38;;;;;;;17.85;25.72;94029.44;5031375;28;20252;-71
2023/04/12 10:56:38;;;;;;;1.05;1.05;;;;;;;17.83;25.75;94013.31;5030669;28;20302;-68
2023/04/12 10:59:05;;;;;;;1.50;1.40;;;;;;;17.51;25.68;94005.53;5030479;28;20261;-70
2023/04/12 11:01:32;;;;;;;1.33;1.23;;;;;;;17.43;26.08;94000.97;5030752;28;20277;-70
2023/04/12 11:04:18;;;;;;;1.30;1.17;;;;;;;17.18;24.30;94004.59;5030737;28;20239;-70
2023/04/12 11:06:56;;;;;;;6.32;5.22;;;;;;;17.35;24.56;93987.91;5031134;28;20203;-68
2023/04/12 11:09:25;;;;;;;3.38;1.35;;;;;;;17.36;25.70;93999.81;5030437;28;20741;-68
2023/04/12 11:11:56;;;;;;;1.70;1.30;;;;;;;17.43;25.26;94011.25;5030656;28;20239;-67
2023/04/12 11:14:28;;;;;;;2.17;1.27;;;;;;;17.55;25.73;94000.03;5018515;28;20681;-70
2023/04/12 11:17:23;;;;;;;3.20;1.15;;;;;;;17.60;25.99;94003.03;5030576;28;20214;-71
2023/04/12 11:19:56;;;;;;;1.27;1.17;;;;;;;17.42;26.28;94007.03;5030411;28;20220;-69
2023/04/12 11:22:26;;;;;;;4.40;1.23;;;;;;;17.43;26.13;93995.84;5018169;28;20200;-70
2023/04/12 11:24:55;;;;;;;0.95;0.95;;;;;;;17.27;25.83;93992.81;5030447;28;20204;-66
2023/04/12 11:27:23;;;;;;;4.13;1.17;;;;;;;17.12;25.87;93986.28;5030717;28;20211;-70
2023/04/12 11:29:51;;;;;;;1.27;1.17;;;;;;;16.95;26.17;94016.59;5030023;28;20231;-69
2023/04/12 11:32:18;;;;;;;0.93;0.93;;;;;;;16.87;25.94;93993.25;5030592;28;20206;-68